createdAt,value
2022-08-09T00:00:29.138Z,8.33
2022-08-09T00:01:39.915Z,6.72
2022-08-09T00:02:30.404Z,18.00
2022-08-09T00:04:00.806Z,17.35
2022-08-09T00:04:35.413Z,10.59
2022-08-09T00:06:17.601Z,14.78
2022-08-09T00:06:30.080Z,22.19
2022-08-09T00:07:29.681Z,5.43
2022-08-09T00:08:32.236Z,20.90
2022-08-09T00:09:29.027Z,17.35
2022-08-09T00:10:28.998Z,17.68
2022-08-09T00:11:58.670Z,20.58
2022-08-09T00:12:29.977Z,16.06
2022-08-09T00:13:31.525Z,14.13
2022-08-09T00:14:36.364Z,14.13
2022-08-09T00:15:57.988Z,22.19
2022-08-09T00:16:36.649Z,14.78
2022-08-09T00:18:07.576Z,13.81
2022-08-09T00:18:29.977Z,21.54
2022-08-09T00:19:28.963Z,21.54
2022-08-09T00:20:31.485Z,13.49
2022-08-09T00:21:28.865Z,14.45
2022-08-09T00:22:35.130Z,13.49
2022-08-09T00:23:54.647Z,17.03
2022-08-09T00:24:29.825Z,21.22
2022-08-09T00:25:32.922Z,5.75
2022-08-09T00:26:29.977Z,13.81
2022-08-09T00:27:28.784Z,5.75
2022-08-09T00:28:29.767Z,14.45
2022-08-09T00:30:09.989Z,20.25
2022-08-09T00:30:29.752Z,14.45
2022-08-09T00:31:57.328Z,18.00
2022-08-09T00:32:29.715Z,11.87
2022-08-09T00:33:32.468Z,6.07
2022-08-09T00:34:32.544Z,19.93
2022-08-09T00:35:29.657Z,7.04
2022-08-09T00:36:30.812Z,13.81
2022-08-09T00:37:32.725Z,13.81
2022-08-09T00:38:28.637Z,19.29
2022-08-09T00:40:12.293Z,17.68
2022-08-09T00:40:31.147Z,6.40
2022-08-09T00:44:09.935Z,20.25
2022-08-09T00:44:10.260Z,15.42
2022-08-09T00:44:19.481Z,18.32
2022-08-09T00:44:30.043Z,14.13
2022-08-09T00:45:28.599Z,12.84
2022-08-09T00:46:56.085Z,12.52
2022-08-09T00:47:29.536Z,16.06
2022-08-09T00:48:29.537Z,5.43
2022-08-09T00:49:28.564Z,8.01
2022-08-09T00:50:28.600Z,14.45
2022-08-09T00:51:33.823Z,5.75
2022-08-09T00:52:30.450Z,13.81
2022-08-09T00:53:28.448Z,14.45
2022-08-09T00:54:31.455Z,18.32
2022-08-09T00:56:03.179Z,14.45
2022-08-09T00:56:29.499Z,13.16
2022-08-09T00:57:34.842Z,17.68
2022-08-09T00:58:30.545Z,13.81
2022-08-09T00:59:31.652Z,13.49
2022-08-09T01:00:29.353Z,19.93
2022-08-09T01:01:30.206Z,13.16
2022-08-09T01:02:28.381Z,13.16
2022-08-09T01:03:28.479Z,20.58
2022-08-09T01:04:28.299Z,16.71
2022-08-09T01:05:52.001Z,6.07
2022-08-09T01:06:35.431Z,18.32
2022-08-09T01:07:37.910Z,13.16
2022-08-09T01:08:29.239Z,10.26
2022-08-09T01:09:36.444Z,13.49
2022-08-09T01:10:29.200Z,22.19
2022-08-09T01:11:28.195Z,12.52
2022-08-09T01:12:28.193Z,8.01
2022-08-09T01:13:31.276Z,12.84
2022-08-09T01:14:29.169Z,12.20
2022-08-09T01:15:28.139Z,5.43
2022-08-09T01:16:28.146Z,12.84
2022-08-09T01:17:30.300Z,12.84
2022-08-09T01:18:30.608Z,19.93
2022-08-09T01:19:39.720Z,13.49
2022-08-09T01:20:29.078Z,4.46
2022-08-09T01:21:28.046Z,9.94
2022-08-09T01:22:29.064Z,13.16
2022-08-09T01:24:03.466Z,13.81
2022-08-09T01:24:29.043Z,18.32
2022-08-09T01:25:27.993Z,13.49
2022-08-09T01:26:28.011Z,13.81
2022-08-09T01:27:29.237Z,13.16
2022-08-09T01:28:28.023Z,13.16
2022-08-09T01:29:28.289Z,21.54
2022-08-09T01:30:33.619Z,17.35
2022-08-09T01:32:31.246Z,9.62
2022-08-09T01:32:33.554Z,13.81
2022-08-09T01:33:28.932Z,18.32
2022-08-09T01:34:27.903Z,12.84
2022-08-09T01:35:37.420Z,13.49
2022-08-09T01:36:28.866Z,6.07
2022-08-09T01:38:06.414Z,13.16
2022-08-09T01:38:28.874Z,13.81
2022-08-09T01:39:27.849Z,22.51
2022-08-09T01:40:28.371Z,9.94
2022-08-09T01:41:27.979Z,15.10
2022-08-09T01:42:27.770Z,15.74
2022-08-09T01:43:27.787Z,12.52
2022-08-09T01:44:28.726Z,12.84
2022-08-09T01:45:27.772Z,12.52
2022-08-09T01:46:27.786Z,12.52
2022-08-09T01:47:27.715Z,6.40
2022-08-09T01:48:31.425Z,12.20
2022-08-09T01:49:27.856Z,16.71
2022-08-09T01:50:29.936Z,10.26
2022-08-09T01:51:28.670Z,13.49
2022-08-09T01:52:27.640Z,13.81
2022-08-09T01:53:29.304Z,15.74
2022-08-09T01:54:32.545Z,22.19
2022-08-09T01:55:27.627Z,6.07
2022-08-09T01:56:27.676Z,21.87
2022-08-09T01:57:27.651Z,6.72
2022-08-09T01:58:28.106Z,16.06
2022-08-09T01:59:32.333Z,13.49
2022-08-09T02:00:35.939Z,12.52
2022-08-09T02:01:57.766Z,9.94
2022-08-09T02:02:31.052Z,13.16
2022-08-09T02:03:27.493Z,19.93
2022-08-09T02:04:27.542Z,13.81
2022-08-09T02:05:35.436Z,21.87
2022-08-09T02:06:28.475Z,18.96
2022-08-09T02:08:38.992Z,11.87
2022-08-09T02:08:39.640Z,12.20
2022-08-09T02:09:42.565Z,13.16
2022-08-09T02:10:30.183Z,12.20
2022-08-09T02:11:42.869Z,3.82
2022-08-09T02:12:28.456Z,13.16
2022-08-09T02:13:37.593Z,13.49
2022-08-09T02:14:28.407Z,12.52
2022-08-09T02:15:27.402Z,19.29
2022-08-09T02:16:33.943Z,21.54
2022-08-09T02:18:01.629Z,9.62
2022-08-09T02:18:28.300Z,7.69
2022-08-09T02:19:34.950Z,12.84
2022-08-09T02:20:33.881Z,13.49
2022-08-09T02:21:28.256Z,5.11
2022-08-09T02:22:35.717Z,12.52
2022-08-09T02:23:28.238Z,12.20
2022-08-09T02:24:28.343Z,10.26
2022-08-09T02:25:27.199Z,12.20
2022-08-09T02:26:27.687Z,21.54
2022-08-09T02:27:43.059Z,13.16
2022-08-09T02:28:28.169Z,17.03
2022-08-09T02:29:27.336Z,13.81
2022-08-09T02:30:27.145Z,3.82
2022-08-09T02:31:27.153Z,11.87
2022-08-09T02:32:27.194Z,21.22
2022-08-09T02:33:38.128Z,12.84
2022-08-09T02:34:41.494Z,7.36
2022-08-09T02:36:01.413Z,21.87
2022-08-09T02:36:28.071Z,9.94
2022-08-09T02:37:31.669Z,19.61
2022-08-09T02:38:28.561Z,11.87
2022-08-09T02:39:33.682Z,11.55
2022-08-09T02:40:30.441Z,21.22
2022-08-09T02:41:27.018Z,13.16
2022-08-09T02:42:27.003Z,19.29
2022-08-09T02:43:28.842Z,10.59
2022-08-09T02:44:30.302Z,4.46
2022-08-09T02:45:28.808Z,12.20
2022-08-09T02:46:27.652Z,17.35
2022-08-09T02:47:26.919Z,9.62
2022-08-09T02:48:30.853Z,8.97
2022-08-09T02:49:27.196Z,4.14
2022-08-09T02:50:27.924Z,21.22
2022-08-09T02:51:26.889Z,17.03
2022-08-09T02:52:26.881Z,14.78
2022-08-09T02:53:26.916Z,12.52
2022-08-09T02:54:26.836Z,11.55
2022-08-09T02:55:46.414Z,13.16
2022-08-09T02:56:28.011Z,11.87
2022-08-09T02:57:26.911Z,19.93
2022-08-09T02:58:36.182Z,16.06
2022-08-09T02:59:36.518Z,3.50
2022-08-09T03:00:27.796Z,11.55
2022-08-09T03:01:29.443Z,11.23
2022-08-09T03:02:27.846Z,5.75
2022-08-09T03:03:37.295Z,12.52
2022-08-09T03:04:29.012Z,5.75
2022-08-09T03:05:26.695Z,10.91
2022-08-09T03:06:27.273Z,13.16
2022-08-09T03:07:26.665Z,3.82
2022-08-09T03:08:27.667Z,21.22
2022-08-09T03:09:26.634Z,7.04
2022-08-09T03:10:27.638Z,15.10
2022-08-09T03:11:29.953Z,18.96
2022-08-09T03:12:27.627Z,12.20
2022-08-09T03:13:26.597Z,13.49
2022-08-09T03:14:28.424Z,12.20
2022-08-09T03:16:04.118Z,11.87
2022-08-09T03:16:27.540Z,19.61
2022-08-09T03:17:27.559Z,2.21
2022-08-09T03:18:26.540Z,20.58
2022-08-09T03:19:58.790Z,12.52
2022-08-09T03:20:29.480Z,12.84
2022-08-09T03:21:26.487Z,12.84
2022-08-09T03:22:30.399Z,12.84
2022-08-09T03:23:26.458Z,14.78
2022-08-09T03:24:31.534Z,12.52
2022-08-09T03:25:58.455Z,12.20
2022-08-09T03:26:31.947Z,4.14
2022-08-09T03:27:26.386Z,13.16
2022-08-09T03:28:26.428Z,3.17
2022-08-09T03:29:26.441Z,20.58
2022-08-09T03:30:33.349Z,14.78
2022-08-09T03:31:27.337Z,10.91
2022-08-09T03:32:26.349Z,20.90
2022-08-09T03:33:26.305Z,11.55
2022-08-09T03:34:27.299Z,21.54
2022-08-09T03:36:11.362Z,11.87
2022-08-09T03:36:28.149Z,20.90
2022-08-09T03:37:54.850Z,12.84
2022-08-09T03:38:29.025Z,12.20
2022-08-09T03:39:37.494Z,12.84
2022-08-09T03:40:31.122Z,12.20
2022-08-09T03:41:30.337Z,9.62
2022-08-09T03:42:28.946Z,14.13
2022-08-09T03:43:27.172Z,3.82
2022-08-09T03:44:27.815Z,12.20
2022-08-09T03:46:05.159Z,15.74
2022-08-09T03:46:29.331Z,19.61
2022-08-09T03:47:26.788Z,16.71
2022-08-09T03:48:30.549Z,20.90
2022-08-09T03:49:26.124Z,4.14
2022-08-09T03:50:27.983Z,19.93
2022-08-09T03:51:56.910Z,11.87
2022-08-09T03:52:28.026Z,12.52
2022-08-09T03:53:32.180Z,4.46
2022-08-09T03:54:29.743Z,15.10
2022-08-09T03:55:26.488Z,4.14
2022-08-09T03:56:26.028Z,12.84
2022-08-09T03:57:26.046Z,11.23
2022-08-09T03:58:26.993Z,21.22
2022-08-09T03:59:27.456Z,13.49
2022-08-09T04:00:27.007Z,6.40
2022-08-09T04:01:25.953Z,15.42
2022-08-09T04:02:26.734Z,19.29
2022-08-09T04:03:35.448Z,8.01
2022-08-09T04:04:26.906Z,14.78
2022-08-09T04:05:28.044Z,12.20
2022-08-09T04:06:25.894Z,15.42
2022-08-09T04:07:33.658Z,11.55
2022-08-09T04:08:29.068Z,19.29
2022-08-09T04:09:48.355Z,19.29
2022-08-09T04:10:29.079Z,10.91
2022-08-09T04:11:25.825Z,15.74
2022-08-09T04:12:30.895Z,13.16
2022-08-09T04:13:26.788Z,20.58
2022-08-09T04:14:53.417Z,3.50
2022-08-09T04:15:52.043Z,10.91
2022-08-09T04:16:26.743Z,20.58
2022-08-09T04:17:25.733Z,11.23
2022-08-09T04:18:25.715Z,11.87
2022-08-09T04:19:42.668Z,11.23
2022-08-09T04:20:26.700Z,13.49
2022-08-09T04:21:25.687Z,18.32
2022-08-09T04:22:25.657Z,4.46
2022-08-09T04:23:26.009Z,4.46
2022-08-09T04:24:26.844Z,11.55
2022-08-09T04:25:25.649Z,3.50
2022-08-09T04:26:37.901Z,10.91
2022-08-09T04:27:26.596Z,9.30
2022-08-09T04:28:33.326Z,3.50
2022-08-09T04:29:26.667Z,20.25
2022-08-09T04:30:26.182Z,20.58
2022-08-09T04:31:26.409Z,20.25
2022-08-09T04:32:31.651Z,11.55
2022-08-09T04:33:28.641Z,4.79
2022-08-09T04:34:30.749Z,12.20
2022-08-09T04:35:26.682Z,3.50
2022-08-09T04:36:25.690Z,14.13
2022-08-09T04:37:45.360Z,18.96
2022-08-09T04:38:26.496Z,11.87
2022-08-09T04:39:25.478Z,16.06
2022-08-09T04:40:36.243Z,8.65
2022-08-09T04:41:32.426Z,12.20
2022-08-09T04:42:26.406Z,13.49
2022-08-09T04:43:25.429Z,11.87
2022-08-09T04:44:25.369Z,19.93
2022-08-09T04:45:25.379Z,16.39
2022-08-09T04:46:37.589Z,12.20
2022-08-09T04:47:26.345Z,15.42
2022-08-09T04:48:33.481Z,21.54
2022-08-09T04:49:40.732Z,12.52
2022-08-09T04:50:35.102Z,8.97
2022-08-09T04:51:26.325Z,12.20
2022-08-09T04:52:27.001Z,4.14
2022-08-09T04:53:26.269Z,21.22
2022-08-09T04:54:25.941Z,12.84
2022-08-09T04:55:26.162Z,12.84
2022-08-09T04:56:26.267Z,12.20
2022-08-09T04:57:25.392Z,15.10
2022-08-09T04:58:25.185Z,12.84
2022-08-09T04:59:25.165Z,18.96
2022-08-09T05:00:26.200Z,3.82
2022-08-09T05:01:26.175Z,13.16
2022-08-09T05:02:27.518Z,19.61
2022-08-09T05:03:40.412Z,18.96
2022-08-09T05:04:31.156Z,12.20
2022-08-09T05:05:31.823Z,13.81
2022-08-09T05:06:27.911Z,21.22
2022-08-09T05:07:25.105Z,11.55
2022-08-09T05:08:25.120Z,14.45
2022-08-09T05:09:25.127Z,19.93
2022-08-09T05:10:26.078Z,12.20
2022-08-09T05:11:25.058Z,6.72
2022-08-09T05:12:25.993Z,21.22
2022-08-09T05:13:24.995Z,22.19
2022-08-09T05:14:26.872Z,8.97
2022-08-09T05:15:39.287Z,13.16
2022-08-09T05:16:31.703Z,11.87
2022-08-09T05:18:37.820Z,12.84
2022-08-09T05:18:50.675Z,7.36
2022-08-09T05:19:44.470Z,23.15
2022-08-09T05:20:25.949Z,12.20
2022-08-09T05:21:30.507Z,11.55
2022-08-09T05:22:33.294Z,22.51
2022-08-09T05:23:57.752Z,16.39
2022-08-09T05:24:25.941Z,21.22
2022-08-09T05:25:24.872Z,12.20
2022-08-09T05:26:32.175Z,22.19
2022-08-09T05:27:25.843Z,17.35
2022-08-09T05:28:24.812Z,12.84
2022-08-09T05:29:31.256Z,20.58
2022-08-09T05:30:25.771Z,8.01
2022-08-09T05:31:44.365Z,7.69
2022-08-09T05:32:25.739Z,14.13
2022-08-09T05:33:26.446Z,16.71
2022-08-09T05:34:30.156Z,12.20
2022-08-09T05:35:25.696Z,19.61
2022-08-09T05:36:26.418Z,5.75
2022-08-09T05:37:24.694Z,13.81
2022-08-09T05:38:24.696Z,3.17
2022-08-09T05:39:28.862Z,12.52
2022-08-09T05:40:25.639Z,16.06
2022-08-09T05:41:24.632Z,13.49
2022-08-09T05:42:28.148Z,13.81
2022-08-09T05:43:24.617Z,3.50
2022-08-09T05:44:29.151Z,4.46
2022-08-09T05:45:25.565Z,14.13
2022-08-09T05:46:25.571Z,3.82
2022-08-09T05:47:24.756Z,16.71
2022-08-09T05:48:27.829Z,7.36
2022-08-09T05:50:23.918Z,22.19
2022-08-09T05:50:44.197Z,8.97
2022-08-09T05:51:41.672Z,12.84
2022-08-09T05:52:25.491Z,13.49
2022-08-09T05:53:33.458Z,15.74
2022-08-09T05:54:25.445Z,2.85
2022-08-09T05:55:24.621Z,22.83
2022-08-09T05:56:25.873Z,18.32
2022-08-09T05:57:24.994Z,17.35
2022-08-09T05:58:25.405Z,6.07
2022-08-09T05:59:24.443Z,16.06
2022-08-09T06:00:24.398Z,23.80
2022-08-09T06:01:25.589Z,13.81
2022-08-09T06:02:25.378Z,14.78
2022-08-09T06:03:24.432Z,22.51
2022-08-09T06:04:25.337Z,3.82
2022-08-09T06:05:50.680Z,13.81
2022-08-09T06:06:29.183Z,8.01
2022-08-09T06:07:24.284Z,4.14
2022-08-09T06:08:25.030Z,10.59
2022-08-09T06:09:54.445Z,14.13
2022-08-09T06:10:25.228Z,24.12
2022-08-09T06:11:40.553Z,21.87
2022-08-09T06:12:27.593Z,13.81
2022-08-09T06:13:24.210Z,14.78
2022-08-09T06:14:24.253Z,24.44
2022-08-09T06:15:24.913Z,19.29
2022-08-09T06:16:24.161Z,18.96
2022-08-09T06:17:24.380Z,15.10
2022-08-09T06:18:25.198Z,25.09
2022-08-09T06:19:24.165Z,14.13
2022-08-09T06:20:24.153Z,15.10
2022-08-09T06:21:24.153Z,14.45
2022-08-09T06:22:29.003Z,13.49
2022-08-09T06:23:57.135Z,24.77
2022-08-09T06:24:25.086Z,10.91
2022-08-09T06:25:24.035Z,14.45
2022-08-09T06:26:28.415Z,14.13
2022-08-09T06:27:24.031Z,20.25
2022-08-09T06:28:27.398Z,19.61
2022-08-09T06:29:26.882Z,17.03
2022-08-09T06:30:24.042Z,15.42
2022-08-09T06:31:31.428Z,14.78
2022-08-09T06:33:00.960Z,6.07
2022-08-09T06:33:39.737Z,27.34
2022-08-09T06:34:26.295Z,22.51
2022-08-09T06:35:55.679Z,11.87
2022-08-09T06:36:27.067Z,20.58
2022-08-09T06:37:28.978Z,5.11
2022-08-09T06:38:32.232Z,26.05
2022-08-09T06:39:24.941Z,7.36
2022-08-09T06:40:24.915Z,20.58
2022-08-09T06:41:23.895Z,4.79
2022-08-09T06:42:30.836Z,15.10
2022-08-09T06:43:24.814Z,15.10
2022-08-09T06:44:23.788Z,26.05
2022-08-09T06:46:07.908Z,13.49
2022-08-09T06:46:39.785Z,14.78
2022-08-09T06:47:24.833Z,4.14
2022-08-09T06:48:30.489Z,20.90
2022-08-09T06:49:44.636Z,15.74
2022-08-09T06:50:24.731Z,14.45
2022-08-09T06:51:23.725Z,3.82
2022-08-09T06:52:25.201Z,15.10
2022-08-09T06:53:23.687Z,16.06
2022-08-09T06:54:23.732Z,16.06
2022-08-09T06:55:24.030Z,16.06
2022-08-09T06:56:30.968Z,14.78
2022-08-09T06:57:25.785Z,25.41
2022-08-09T06:58:40.811Z,16.06
2022-08-09T07:00:49.648Z,4.79
2022-08-09T07:00:51.426Z,26.70
2022-08-09T07:01:35.566Z,15.42
2022-08-09T07:02:30.880Z,20.25
2022-08-09T07:03:27.775Z,4.79
2022-08-09T07:04:23.510Z,21.22
2022-08-09T07:05:23.507Z,15.42
2022-08-09T07:06:25.535Z,8.01
2022-08-09T07:07:28.548Z,9.94
2022-08-09T07:08:24.857Z,8.01
2022-08-09T07:09:55.370Z,15.10
2022-08-09T07:10:31.308Z,16.71
2022-08-09T07:11:25.671Z,5.11
2022-08-09T07:12:40.725Z,16.71
2022-08-09T07:13:28.204Z,5.11
2022-08-09T07:14:26.658Z,16.06
2022-08-09T07:16:39.377Z,16.71
2022-08-09T07:16:42.047Z,15.42
2022-08-09T07:17:24.354Z,15.74
2022-08-09T07:18:23.383Z,16.39
2022-08-09T07:19:23.872Z,4.14
2022-08-09T07:20:23.334Z,27.34
2022-08-09T07:21:23.331Z,26.70
2022-08-09T07:22:27.399Z,13.49
2022-08-09T07:23:24.322Z,9.94
2022-08-09T07:24:31.876Z,27.99
2022-08-09T07:25:24.248Z,10.26
2022-08-09T07:26:23.271Z,28.63
2022-08-09T07:27:27.282Z,16.39
2022-08-09T07:28:26.213Z,11.87
2022-08-09T07:29:23.218Z,16.71
2022-08-09T07:30:24.364Z,6.72
2022-08-09T07:31:23.299Z,17.03
2022-08-09T07:32:23.142Z,16.71
2022-08-09T07:33:24.321Z,9.62
2022-08-09T07:34:23.137Z,28.96
2022-08-09T07:35:23.107Z,27.99
2022-08-09T07:36:23.112Z,29.28
2022-08-09T07:37:23.094Z,15.74
2022-08-09T07:38:23.583Z,17.68
2022-08-09T07:39:41.278Z,9.62
2022-08-09T07:40:26.889Z,12.84
2022-08-09T07:41:24.025Z,13.49
2022-08-09T07:42:23.021Z,18.00
2022-08-09T07:43:29.099Z,27.02
2022-08-09T07:44:24.345Z,28.63
2022-08-09T07:45:40.361Z,17.35
2022-08-09T07:46:27.643Z,6.72
2022-08-09T07:47:25.014Z,8.33
2022-08-09T07:48:30.456Z,16.39
2022-08-09T07:49:24.130Z,23.15
2022-08-09T07:50:34.983Z,9.30
2022-08-09T07:52:03.169Z,22.83
2022-08-09T07:52:24.128Z,16.39
2022-08-09T07:54:01.748Z,16.39
2022-08-09T07:54:28.005Z,28.63
2022-08-09T07:55:23.867Z,27.99
2022-08-09T07:56:27.260Z,27.67
2022-08-09T07:57:22.825Z,13.49
2022-08-09T07:58:26.898Z,20.90
2022-08-09T07:59:33.877Z,25.41
2022-08-09T08:00:35.801Z,18.32
2022-08-09T08:01:23.791Z,20.25
2022-08-09T08:02:23.890Z,17.35
2022-08-09T08:03:24.159Z,17.68
2022-08-09T08:04:31.203Z,17.35
2022-08-09T08:05:23.719Z,17.35
2022-08-09T08:06:22.730Z,7.36
2022-08-09T08:08:43.575Z,25.09
2022-08-09T08:09:00.213Z,18.32
2022-08-09T08:09:41.192Z,24.77
2022-08-09T08:10:27.331Z,28.63
2022-08-09T08:12:10.640Z,22.83
2022-08-09T08:12:27.909Z,22.51
2022-08-09T08:13:23.628Z,18.96
2022-08-09T08:14:24.223Z,9.94
2022-08-09T08:15:23.025Z,18.64
2022-08-09T08:16:29.713Z,8.65
2022-08-09T08:17:35.266Z,22.83
2022-08-09T08:18:23.540Z,18.96
2022-08-09T08:19:22.531Z,29.28
2022-08-09T08:20:28.598Z,24.44
2022-08-09T08:21:23.496Z,18.96
2022-08-09T08:22:30.130Z,18.64
2022-08-09T08:23:25.652Z,18.32
2022-08-09T08:24:22.454Z,21.22
2022-08-09T08:25:22.441Z,10.26
2022-08-09T08:26:26.749Z,22.51
2022-08-09T08:27:23.411Z,18.96
2022-08-09T08:28:26.236Z,9.62
2022-08-09T08:29:28.010Z,21.22
2022-08-09T08:30:23.401Z,27.34
2022-08-09T08:31:24.468Z,24.12
2022-08-09T08:32:28.941Z,26.70
2022-08-09T08:33:24.548Z,20.58
2022-08-09T08:34:25.345Z,24.44
2022-08-09T08:35:22.810Z,18.96
2022-08-09T08:36:28.493Z,27.34
2022-08-09T08:37:23.306Z,22.83
2022-08-09T08:38:22.277Z,17.03
2022-08-09T08:39:22.367Z,12.20
2022-08-09T08:40:22.267Z,16.39
2022-08-09T08:41:22.448Z,19.29
2022-08-09T08:42:29.515Z,19.29
2022-08-09T08:43:23.359Z,23.48
2022-08-09T08:44:27.237Z,14.45
2022-08-09T08:45:37.162Z,28.96
2022-08-09T08:46:32.065Z,27.02
2022-08-09T08:47:23.253Z,19.29
2022-08-09T08:48:22.133Z,27.67
2022-08-09T08:49:22.617Z,19.93
2022-08-09T08:50:23.112Z,17.03
2022-08-09T08:51:22.610Z,19.93
2022-08-09T08:52:58.123Z,19.93
2022-08-09T08:53:23.060Z,19.93
2022-08-09T08:54:29.708Z,19.61
2022-08-09T08:55:23.551Z,19.29
2022-08-09T08:56:28.345Z,29.28
2022-08-09T08:57:23.029Z,20.58
2022-08-09T08:58:23.946Z,27.99
2022-08-09T08:59:22.986Z,20.25
2022-08-09T09:00:27.526Z,20.90
2022-08-09T09:01:24.680Z,20.25
2022-08-09T09:02:31.374Z,19.61
2022-08-09T09:03:33.175Z,20.25
2022-08-09T09:04:26.905Z,18.32
2022-08-09T09:05:33.090Z,20.25
2022-08-09T09:06:22.952Z,15.74
2022-08-09T09:07:21.922Z,22.51
2022-08-09T09:08:30.666Z,13.49
2022-08-09T09:09:50.260Z,17.35
2022-08-09T09:10:22.899Z,21.22
2022-08-09T09:11:21.867Z,14.78
2022-08-09T09:12:21.907Z,21.22
2022-08-09T09:13:21.817Z,29.28
2022-08-09T09:14:21.799Z,27.34
2022-08-09T09:15:28.070Z,19.29
2022-08-09T09:16:29.702Z,24.12
2022-08-09T09:17:23.739Z,22.83
2022-08-09T09:18:22.755Z,21.87
2022-08-09T09:19:40.084Z,18.00
2022-08-09T09:20:22.728Z,17.03
2022-08-09T09:21:26.201Z,24.12
2022-08-09T09:22:26.901Z,30.89
2022-08-09T09:23:22.730Z,25.09
2022-08-09T09:24:22.670Z,24.77
2022-08-09T09:26:04.056Z,20.58
2022-08-09T09:26:22.696Z,22.83
2022-08-09T09:28:02.898Z,34.11
2022-08-09T09:28:58.930Z,26.70
2022-08-09T09:29:22.599Z,21.22
2022-08-09T09:30:41.078Z,18.96
2022-08-09T09:32:01.792Z,18.96
2022-08-09T09:32:35.385Z,31.53
2022-08-09T09:33:23.794Z,26.05
2022-08-09T09:34:21.532Z,23.15
2022-08-09T09:35:21.546Z,24.12
2022-08-09T09:36:22.231Z,30.89
2022-08-09T09:37:25.627Z,26.70
2022-08-09T09:38:36.465Z,24.77
2022-08-09T09:39:22.613Z,25.73
2022-08-09T09:40:21.503Z,24.44
2022-08-09T09:41:21.442Z,23.48
2022-08-09T09:42:21.566Z,23.80
2022-08-09T09:43:21.690Z,30.24
2022-08-09T09:44:25.937Z,18.32
2022-08-09T09:45:26.223Z,24.12
2022-08-09T09:47:22.375Z,24.44
2022-08-09T09:48:21.361Z,25.41
2022-08-09T09:49:31.863Z,25.09
2022-08-09T09:50:23.392Z,25.41
2022-08-09T09:51:26.194Z,24.77
2022-08-09T09:52:37.313Z,25.41
2022-08-09T09:53:43.612Z,25.73
2022-08-09T09:54:22.276Z,25.09
2022-08-09T09:55:27.942Z,20.58
2022-08-09T09:56:31.632Z,20.90
2022-08-09T09:58:02.195Z,26.38
2022-08-09T09:58:24.435Z,25.41
2022-08-09T09:59:21.204Z,25.41
2022-08-09T10:00:22.010Z,25.41
2022-08-09T10:01:31.204Z,30.24
2022-08-09T10:02:22.185Z,29.60
2022-08-09T10:03:21.207Z,25.73
2022-08-09T10:04:30.451Z,26.70
2022-08-09T10:05:26.997Z,25.41
2022-08-09T10:06:23.075Z,26.70
2022-08-09T10:07:21.104Z,26.05
2022-08-09T10:08:28.104Z,23.80
2022-08-09T10:09:23.874Z,21.87
2022-08-09T10:10:21.068Z,21.54
2022-08-09T10:12:01.446Z,26.70
2022-08-09T10:12:28.593Z,26.70
2022-08-09T10:13:23.233Z,31.21
2022-08-09T10:14:31.017Z,29.92
2022-08-09T10:15:51.012Z,22.83
2022-08-09T10:16:58.139Z,27.34
2022-08-09T10:17:39.792Z,27.67
2022-08-09T10:18:21.969Z,26.38
2022-08-09T10:19:20.949Z,32.82
2022-08-09T10:20:26.890Z,27.67
2022-08-09T10:21:21.919Z,26.70
2022-08-09T10:22:29.459Z,22.83
2022-08-09T10:23:22.321Z,21.22
2022-08-09T10:24:25.695Z,24.12
2022-08-09T10:25:21.878Z,28.96
2022-08-09T10:26:20.843Z,20.90
2022-08-09T10:27:28.701Z,31.86
2022-08-09T10:28:21.848Z,32.18
2022-08-09T10:29:36.099Z,26.05
2022-08-09T10:32:38.736Z,26.70
2022-08-09T10:34:07.911Z,25.41
2022-08-09T10:34:33.174Z,25.73
2022-08-09T10:35:21.738Z,21.54
2022-08-09T10:36:20.733Z,27.67
2022-08-09T10:37:20.732Z,30.24
2022-08-09T10:38:34.350Z,22.51
2022-08-09T10:39:21.730Z,19.61
2022-08-09T10:40:33.471Z,25.73
2022-08-09T10:41:21.675Z,16.39
2022-08-09T10:42:20.649Z,28.31
2022-08-09T10:43:21.666Z,22.83
2022-08-09T10:44:21.715Z,26.38
2022-08-09T10:45:20.617Z,26.70
2022-08-09T10:46:25.185Z,21.87
2022-08-09T10:48:16.735Z,24.77
2022-08-09T10:48:30.075Z,26.05
2022-08-09T10:49:21.565Z,27.67
2022-08-09T10:50:27.114Z,22.51
2022-08-09T10:51:29.844Z,22.51
2022-08-09T10:52:21.523Z,27.02
2022-08-09T10:53:21.259Z,25.73
2022-08-09T10:54:20.500Z,26.38
2022-08-09T10:55:20.491Z,25.41
2022-08-09T10:56:22.611Z,22.83
2022-08-09T10:57:20.438Z,28.31
2022-08-09T10:58:25.409Z,25.73
2022-08-09T10:59:21.434Z,27.02
2022-08-09T11:00:20.446Z,25.73
2022-08-09T11:03:11.280Z,31.21
2022-08-09T11:03:13.217Z,30.89
2022-08-09T11:03:47.022Z,31.86
2022-08-09T11:04:31.252Z,26.05
2022-08-09T11:05:24.848Z,30.24
2022-08-09T11:06:22.940Z,28.96
2022-08-09T11:07:20.306Z,21.87
2022-08-09T11:08:30.165Z,30.57
2022-08-09T11:09:21.274Z,30.57
2022-08-09T11:10:20.281Z,27.34
2022-08-09T11:11:21.275Z,29.60
2022-08-09T11:12:20.354Z,22.83
2022-08-09T11:13:54.109Z,25.73
2022-08-09T11:14:28.545Z,23.48
2022-08-09T11:15:24.083Z,26.70
2022-08-09T11:16:35.156Z,22.51
2022-08-09T11:17:21.179Z,27.34
2022-08-09T11:18:20.190Z,30.89
2022-08-09T11:19:20.167Z,22.83
2022-08-09T11:20:22.520Z,26.38
2022-08-09T11:21:20.131Z,26.38
2022-08-09T11:22:24.431Z,26.38
2022-08-09T11:23:24.050Z,27.34
2022-08-09T11:24:21.100Z,22.83
2022-08-09T11:25:25.718Z,26.38
2022-08-09T11:26:21.132Z,27.02
2022-08-09T11:28:02.644Z,27.34
2022-08-09T11:28:30.926Z,27.02
2022-08-09T11:30:06.636Z,27.34
2022-08-09T11:30:32.068Z,27.34
2022-08-09T11:31:33.762Z,27.99
2022-08-09T11:32:21.021Z,27.99
2022-08-09T11:33:20.216Z,28.31
2022-08-09T11:34:19.963Z,34.11
2022-08-09T11:35:23.811Z,31.53
2022-08-09T11:36:35.561Z,28.63
2022-08-09T11:37:20.922Z,29.28
2022-08-09T11:38:22.521Z,27.99
2022-08-09T11:39:20.935Z,28.31
2022-08-09T11:40:19.886Z,27.99
2022-08-09T11:41:19.879Z,29.28
2022-08-09T11:42:19.936Z,29.60
2022-08-09T11:43:19.852Z,25.41
2022-08-09T11:44:19.852Z,25.41
2022-08-09T11:45:19.826Z,28.63
2022-08-09T11:46:32.827Z,31.86
2022-08-09T11:47:20.787Z,29.60
2022-08-09T11:48:26.632Z,32.82
2022-08-09T11:49:28.141Z,33.14
2022-08-09T11:50:53.221Z,32.18
2022-08-09T11:52:56.779Z,32.82
2022-08-09T11:53:02.061Z,27.34
2022-08-09T11:53:57.839Z,30.24
2022-08-09T11:54:28.596Z,30.57
2022-08-09T11:55:34.653Z,30.89
2022-08-09T11:56:20.699Z,30.57
2022-08-09T11:57:47.098Z,31.21
2022-08-09T11:58:30.467Z,30.57
2022-08-09T11:59:20.674Z,30.89
2022-08-09T12:00:24.183Z,33.79
2022-08-09T12:02:00.953Z,27.34
2022-08-09T12:02:37.054Z,34.11
2022-08-09T12:03:54.824Z,33.14
2022-08-09T12:04:28.777Z,30.89
2022-08-09T12:05:22.735Z,27.34
2022-08-09T12:06:26.744Z,28.96
2022-08-09T12:07:20.534Z,27.67
2022-08-09T12:08:21.496Z,29.92
2022-08-09T12:09:21.166Z,29.28
2022-08-09T12:10:39.321Z,27.99
2022-08-09T12:11:20.481Z,24.77
2022-08-09T12:12:29.452Z,28.63
2022-08-09T12:14:09.408Z,32.82
2022-08-09T12:14:36.446Z,32.18
2022-08-09T12:15:48.473Z,30.24
2022-08-09T12:16:37.509Z,29.28
2022-08-09T12:17:34.384Z,29.60
2022-08-09T12:18:29.600Z,33.14
2022-08-09T12:19:20.502Z,28.31
2022-08-09T12:20:21.505Z,31.53
2022-08-09T12:21:26.481Z,30.89
2022-08-09T12:22:20.362Z,28.63
2022-08-09T12:23:24.761Z,30.57
2022-08-09T12:24:20.546Z,30.89
2022-08-09T12:25:36.817Z,31.53
2022-08-09T12:26:26.247Z,34.43
2022-08-09T12:29:13.892Z,31.53
2022-08-09T12:29:15.411Z,30.89
2022-08-09T12:29:33.577Z,29.28
2022-08-09T12:30:36.785Z,29.60
2022-08-09T12:31:58.633Z,32.18
2022-08-09T12:32:20.232Z,34.43
2022-08-09T12:33:19.249Z,29.28
2022-08-09T12:34:19.221Z,32.18
2022-08-09T12:35:21.904Z,31.53
2022-08-09T12:36:32.001Z,32.50
2022-08-09T12:37:24.229Z,32.50
2022-08-09T12:38:37.483Z,32.50
2022-08-09T12:39:20.265Z,32.82
2022-08-09T12:40:19.250Z,30.24
2022-08-09T12:41:19.389Z,33.79
2022-08-09T12:42:19.222Z,32.82
2022-08-09T12:43:19.118Z,33.47
2022-08-09T12:44:19.096Z,36.37
2022-08-09T12:45:34.956Z,34.43
2022-08-09T12:46:20.069Z,29.60
2022-08-09T12:47:23.008Z,36.69
2022-08-09T12:48:27.930Z,34.11
2022-08-09T12:49:20.853Z,37.66
2022-08-09T12:50:19.618Z,31.53
2022-08-09T12:51:52.180Z,34.11
2022-08-09T12:52:19.976Z,35.72
2022-08-09T12:53:23.739Z,34.43
2022-08-09T12:54:19.975Z,37.66
2022-08-09T12:56:14.938Z,34.43
2022-08-09T12:56:37.108Z,34.11
2022-08-09T12:57:19.910Z,36.37
2022-08-09T12:58:27.394Z,30.57
2022-08-09T12:59:19.910Z,35.72